createdAt,value
2019-01-21T00:01:42.175Z,-0.96
2019-01-21T00:04:13.607Z,-0.99
2019-01-21T00:06:45.042Z,-1.12
2019-01-21T00:09:16.469Z,-1.11
2019-01-21T00:11:47.961Z,-1.05
2019-01-21T00:14:19.456Z,-0.94
2019-01-21T00:16:50.910Z,-1.03
2019-01-21T00:19:22.544Z,-1.08
2019-01-21T00:21:53.999Z,-1.05
2019-01-21T00:24:25.434Z,-0.95
2019-01-21T00:26:56.886Z,-0.89
2019-01-21T00:29:28.306Z,-1.37
2019-01-21T00:31:59.762Z,-1.16
2019-01-21T00:34:31.452Z,-0.95
2019-01-21T00:37:03.689Z,-0.89
2019-01-21T00:39:35.239Z,-0.98
2019-01-21T00:42:06.917Z,-0.97
2019-01-21T00:44:38.336Z,-0.88
2019-01-21T00:47:09.768Z,-0.98
2019-01-21T00:49:41.110Z,-0.96
2019-01-21T00:52:12.556Z,-0.73
2019-01-21T00:54:43.979Z,-1.06
2019-01-21T00:57:15.438Z,-1.21
2019-01-21T00:59:46.861Z,-1.26
2019-01-21T01:02:18.328Z,-0.92
2019-01-21T01:04:49.777Z,-1.05
2019-01-21T01:07:21.230Z,-1.21
2019-01-21T01:09:52.660Z,-0.83
2019-01-21T01:12:24.157Z,-1.41
2019-01-21T01:14:55.597Z,-1.16
2019-01-21T01:17:27.043Z,-1.00
2019-01-21T01:19:58.458Z,-0.94
2019-01-21T01:22:29.913Z,-0.89
2019-01-21T01:25:01.342Z,-1.10
2019-01-21T01:27:32.804Z,-0.94
2019-01-21T01:30:04.357Z,-1.03
2019-01-21T01:32:35.892Z,-1.06
2019-01-21T01:35:08.095Z,-1.09
2019-01-21T01:37:39.699Z,-0.92
2019-01-21T01:40:15.524Z,-1.18
2019-01-21T01:42:47.137Z,-1.25
2019-01-21T01:45:27.045Z,-1.04
2019-01-21T01:48:07.501Z,-1.05
2019-01-21T01:50:38.937Z,-0.87
2019-01-21T01:53:10.370Z,-0.90
2019-01-21T01:55:41.793Z,-1.19
2019-01-21T01:58:13.230Z,-1.19
2019-01-21T02:00:44.648Z,-1.15
2019-01-21T02:03:16.114Z,-1.31
2019-01-21T02:05:47.532Z,-1.01
2019-01-21T02:08:19.353Z,-1.04
2019-01-21T02:10:50.795Z,-1.10
2019-01-21T02:13:22.327Z,-1.16
2019-01-21T02:15:53.930Z,-1.03
2019-01-21T02:18:25.368Z,-1.16
2019-01-21T02:20:59.810Z,-0.98
2019-01-21T02:23:40.040Z,-1.09
2019-01-21T02:26:21.255Z,-1.13
2019-01-21T02:29:29.384Z,-1.09
2019-01-21T02:33:09.140Z,-1.04
2019-01-21T02:36:45.490Z,-0.99
2019-01-21T02:40:07.856Z,-1.26
2019-01-21T02:43:12.519Z,-1.41
2019-01-21T02:46:47.661Z,-1.15
2019-01-21T02:50:04.104Z,-0.87
2019-01-21T02:53:19.129Z,-1.05
2019-01-21T02:56:59.865Z,-0.85
2019-01-21T03:00:21.814Z,-1.03
2019-01-21T03:03:33.681Z,-1.10
2019-01-21T03:06:27.065Z,-1.26
2019-01-21T03:09:48.810Z,-1.00
2019-01-21T03:13:00.134Z,-1.01
2019-01-21T03:16:15.300Z,-0.98
2019-01-21T03:19:34.743Z,-0.99
2019-01-21T03:22:47.309Z,-1.18
2019-01-21T03:26:02.939Z,-1.22
2019-01-21T03:29:28.923Z,-0.95
2019-01-21T03:33:08.549Z,-1.46
2019-01-21T03:36:23.244Z,-1.22
2019-01-21T03:40:00.374Z,-0.95
2019-01-21T03:43:07.457Z,-0.95
2019-01-21T03:46:27.622Z,-1.16
2019-01-21T03:49:20.086Z,-1.41
2019-01-21T03:52:56.546Z,-1.37
2019-01-21T03:55:28.060Z,-1.34
2019-01-21T03:58:57.089Z,-1.27
2019-01-21T04:02:25.481Z,-1.83
2019-01-21T04:05:32.860Z,-1.56
2019-01-21T04:08:37.155Z,-1.39
2019-01-21T04:11:41.002Z,-1.24
2019-01-21T04:15:16.482Z,-1.43
2019-01-21T04:18:35.904Z,-1.21
2019-01-21T04:22:07.019Z,-1.33
2019-01-21T04:25:26.414Z,-1.20
2019-01-21T04:28:38.266Z,-1.06
2019-01-21T04:32:03.306Z,-1.27
2019-01-21T04:35:27.308Z,-0.95
2019-01-21T04:39:19.669Z,-1.06
2019-01-21T04:42:45.482Z,-1.13
2019-01-21T04:46:02.380Z,-0.97
2019-01-21T04:49:20.114Z,-0.90
2019-01-21T04:52:33.674Z,-1.32
2019-01-21T04:55:56.187Z,-1.11
2019-01-21T04:59:16.693Z,-1.06
2019-01-21T05:02:22.848Z,-1.28
2019-01-21T05:06:00.924Z,-1.18
2019-01-21T05:09:12.176Z,-1.24
2019-01-21T05:12:23.394Z,-1.11
2019-01-21T05:15:28.040Z,-1.07
2019-01-21T05:18:43.779Z,-1.11
2019-01-21T05:22:18.163Z,-1.18
2019-01-21T05:26:01.657Z,-1.28
2019-01-21T05:29:45.694Z,-1.10
2019-01-21T05:33:09.822Z,-0.94
2019-01-21T05:36:19.390Z,-1.19
2019-01-21T05:39:46.808Z,-1.03
2019-01-21T05:43:32.291Z,-1.23
2019-01-21T05:47:09.568Z,-1.10
2019-01-21T05:50:35.300Z,-1.09
2019-01-21T05:54:10.518Z,-1.14
2019-01-21T05:57:34.256Z,-1.18
2019-01-21T06:01:28.930Z,-1.18
2019-01-21T06:04:53.356Z,-1.43
2019-01-21T06:08:43.160Z,-1.00
2019-01-21T06:12:01.055Z,-1.05
2019-01-21T06:15:13.029Z,-0.98
2019-01-21T06:18:07.480Z,-0.89
2019-01-21T06:21:55.838Z,-1.24
2019-01-21T06:25:43.650Z,-1.20
2019-01-21T06:29:03.763Z,-1.11
2019-01-21T06:32:25.320Z,-1.27
2019-01-21T06:35:32.979Z,-0.92
2019-01-21T06:39:11.562Z,-1.27
2019-01-21T06:42:41.025Z,-1.02
2019-01-21T06:45:42.371Z,-1.27
2019-01-21T06:49:09.592Z,-1.22
2019-01-21T06:52:19.506Z,-1.08
2019-01-21T06:55:33.505Z,-1.16
2019-01-21T06:58:52.170Z,-0.93
2019-01-21T07:01:54.635Z,-1.11
2019-01-21T07:05:19.446Z,-1.25
2019-01-21T07:08:52.875Z,-1.07
2019-01-21T07:12:20.076Z,-1.67
2019-01-21T07:15:54.416Z,-1.12
2019-01-21T07:19:10.968Z,-1.00
2019-01-21T07:22:06.291Z,-1.24
2019-01-21T07:25:19.572Z,-1.44
2019-01-21T07:28:55.889Z,-1.30
2019-01-21T07:32:23.555Z,-1.35
2019-01-21T07:35:41.127Z,-1.22
2019-01-21T07:38:34.599Z,-1.18
2019-01-21T07:42:15.191Z,-1.38
2019-01-21T07:45:41.556Z,-1.28
2019-01-21T07:49:22.128Z,-1.06
2019-01-21T07:53:23.931Z,-1.47
2019-01-21T07:57:02.998Z,-1.11
2019-01-21T08:00:08.914Z,-1.54
2019-01-21T08:03:26.639Z,-1.50
2019-01-21T08:06:45.751Z,-1.47
2019-01-21T08:10:37.039Z,-1.07
2019-01-21T08:13:43.032Z,-1.58
2019-01-21T08:16:56.735Z,-1.21
2019-01-21T08:20:33.147Z,-1.41
2019-01-21T08:23:43.493Z,-1.53
2019-01-21T08:26:51.684Z,-1.24
2019-01-21T08:29:44.079Z,-1.34
2019-01-21T08:33:30.723Z,-1.32
2019-01-21T08:36:53.566Z,-1.07
2019-01-21T08:40:17.270Z,-1.10
2019-01-21T08:43:33.014Z,-1.26
2019-01-21T08:46:51.828Z,-1.21
2019-01-21T08:50:32.841Z,-1.18
2019-01-21T08:53:52.749Z,-1.15
2019-01-21T08:57:24.548Z,-1.01
2019-01-21T09:00:20.939Z,-1.03
2019-01-21T09:03:40.747Z,-1.17
2019-01-21T09:06:39.848Z,-1.65
2019-01-21T09:09:48.646Z,-1.65
2019-01-21T09:13:02.392Z,-1.23
2019-01-21T09:16:44.458Z,-1.04
2019-01-21T09:19:49.023Z,-1.23
2019-01-21T09:23:28.770Z,-1.34
2019-01-21T09:26:37.668Z,-1.21
2019-01-21T09:29:42.997Z,-1.44
2019-01-21T09:32:37.337Z,-1.28
2019-01-21T09:36:07.445Z,-1.36
2019-01-21T09:39:59.881Z,-1.33
2019-01-21T09:43:32.723Z,-1.22
2019-01-21T09:46:46.832Z,-1.29
2019-01-21T09:49:15.967Z,-1.11
2019-01-21T09:52:09.224Z,-1.28
2019-01-21T09:54:41.836Z,-1.25
2019-01-21T09:57:24.235Z,-1.05
2019-01-21T10:00:00.197Z,-1.09
2019-01-21T10:02:40.601Z,-1.31
2019-01-21T10:05:14.976Z,-1.43
2019-01-21T10:08:18.076Z,-1.38
2019-01-21T10:12:00.559Z,-1.30
2019-01-21T10:15:43.345Z,-1.25
2019-01-21T10:19:23.423Z,-1.32
2019-01-21T10:22:45.535Z,-1.34
2019-01-21T10:25:53.093Z,-1.09
2019-01-21T10:29:13.898Z,-1.08
2019-01-21T10:32:38.953Z,-1.24
2019-01-21T10:35:59.677Z,-1.41
2019-01-21T10:39:40.614Z,-1.10
2019-01-21T10:42:58.543Z,-1.17
2019-01-21T10:45:53.493Z,-1.09
2019-01-21T10:49:01.220Z,-1.29
2019-01-21T10:52:30.384Z,-1.39
2019-01-21T10:55:45.990Z,-1.23
2019-01-21T10:59:18.534Z,-1.06
2019-01-21T11:02:40.650Z,-0.98
2019-01-21T11:05:50.235Z,-1.30
2019-01-21T11:09:13.802Z,-0.71
2019-01-21T11:12:53.870Z,-0.78
2019-01-21T11:15:45.132Z,-0.64
2019-01-21T11:18:56.131Z,-0.90
2019-01-21T11:22:20.156Z,-0.82
2019-01-21T11:25:34.142Z,-0.66
2019-01-21T11:28:57.388Z,-0.77
2019-01-21T11:32:25.568Z,-1.04
2019-01-21T11:35:46.296Z,-0.73
2019-01-21T11:39:33.572Z,-0.81
2019-01-21T11:42:53.866Z,-0.81
2019-01-21T11:46:13.376Z,-0.64
2019-01-21T11:49:43.890Z,-0.90
2019-01-21T11:53:05.726Z,-0.95
2019-01-21T11:56:21.668Z,-0.58
2019-01-21T11:59:52.761Z,-0.41
2019-01-21T12:03:16.018Z,-0.79
2019-01-21T12:06:13.830Z,-0.48
2019-01-21T12:09:58.044Z,-0.24
2019-01-21T12:13:16.711Z,-0.60
2019-01-21T12:16:46.018Z,-0.45
2019-01-21T12:19:56.358Z,-0.26
2019-01-21T12:23:31.574Z,-0.12
2019-01-21T12:26:37.399Z,-0.07
2019-01-21T12:29:55.155Z,0.01
2019-01-21T12:33:38.062Z,0.04
2019-01-21T12:36:58.047Z,-0.12
2019-01-21T12:40:33.784Z,0.03
2019-01-21T12:43:55.053Z,-0.21
2019-01-21T12:47:24.700Z,-0.10
2019-01-21T12:50:54.503Z,-0.15
2019-01-21T12:54:11.624Z,-0.03
2019-01-21T12:57:15.567Z,-0.09
2019-01-21T13:00:36.260Z,-0.25
2019-01-21T13:04:10.386Z,-0.46
2019-01-21T13:07:33.535Z,-0.27
2019-01-21T13:11:07.412Z,-0.01
2019-01-21T13:14:25.057Z,-0.23
2019-01-21T13:17:37.043Z,-0.21
2019-01-21T13:20:49.215Z,-0.19
2019-01-21T13:24:06.094Z,-0.03
2019-01-21T13:28:07.280Z,-0.23
2019-01-21T13:31:25.799Z,-0.26
2019-01-21T13:35:04.842Z,-0.38
2019-01-21T13:38:45.814Z,-0.45
2019-01-21T13:41:43.862Z,-0.44
2019-01-21T13:45:27.843Z,-0.40
2019-01-21T13:49:03.508Z,-0.28
2019-01-21T13:52:51.450Z,-0.47
2019-01-21T13:56:37.007Z,-0.36
2019-01-21T13:59:59.016Z,-0.36
2019-01-21T14:03:27.868Z,-0.44
2019-01-21T14:06:49.617Z,-0.45
2019-01-21T14:09:56.988Z,-0.34
2019-01-21T14:12:47.451Z,-0.31
2019-01-21T14:15:51.930Z,-0.46
2019-01-21T14:19:12.076Z,-0.22
2019-01-21T14:22:42.406Z,-0.29
2019-01-21T14:26:07.131Z,-0.40
2019-01-21T14:29:25.188Z,-0.22
2019-01-21T14:32:23.364Z,-0.21
2019-01-21T14:35:44.138Z,-0.32
2019-01-21T14:39:19.459Z,-0.43
2019-01-21T14:42:19.964Z,-0.22
2019-01-21T14:45:48.853Z,-0.23
2019-01-21T14:48:54.321Z,-0.53
2019-01-21T14:52:34.504Z,-0.34
2019-01-21T14:55:42.858Z,-0.33
2019-01-21T14:59:04.015Z,-0.55
2019-01-21T15:02:14.042Z,-0.40
2019-01-21T15:05:32.308Z,-0.55
2019-01-21T15:08:52.659Z,-0.46
2019-01-21T15:12:11.932Z,-0.58
2019-01-21T15:15:56.836Z,-0.47
2019-01-21T15:18:59.177Z,-0.35
2019-01-21T15:22:15.982Z,-0.43
2019-01-21T15:25:52.204Z,-0.42
2019-01-21T15:29:14.554Z,-0.41
2019-01-21T15:32:33.037Z,-0.47
2019-01-21T15:35:52.496Z,-0.76
2019-01-21T15:39:22.368Z,-0.57
2019-01-21T15:42:50.373Z,-0.56
2019-01-21T15:46:09.975Z,-0.57
2019-01-21T15:49:02.007Z,-0.65
2019-01-21T15:52:24.607Z,-0.65
2019-01-21T15:55:55.363Z,-0.30
2019-01-21T15:58:58.331Z,-0.55
2019-01-21T16:02:07.259Z,-0.60
2019-01-21T16:05:21.717Z,-0.35
2019-01-21T16:08:25.509Z,-0.72
2019-01-21T16:11:34.352Z,-0.24
2019-01-21T16:14:15.269Z,-0.43
2019-01-21T16:17:57.472Z,-0.52
2019-01-21T16:21:39.031Z,-0.67
2019-01-21T16:24:55.190Z,-0.71
2019-01-21T16:28:11.286Z,-0.64
2019-01-21T16:30:55.685Z,-0.41
2019-01-21T16:34:20.452Z,-0.58
2019-01-21T16:37:44.583Z,-0.54
2019-01-21T16:41:41.857Z,-0.61
2019-01-21T16:44:13.491Z,-0.58
2019-01-21T16:46:44.965Z,-0.53
2019-01-21T16:49:16.439Z,-0.61
2019-01-21T16:51:49.318Z,-0.60
2019-01-21T16:54:20.734Z,-0.51
2019-01-21T16:56:52.287Z,-0.63
2019-01-21T16:59:24.035Z,-0.70
2019-01-21T17:01:56.188Z,-0.73
2019-01-21T17:04:27.681Z,-0.74
2019-01-21T17:06:59.138Z,-0.55
2019-01-21T17:09:30.998Z,-0.60
2019-01-21T17:12:02.462Z,-0.59
2019-01-21T17:14:34.405Z,-0.59
2019-01-21T17:17:05.900Z,-0.57
2019-01-21T17:19:39.655Z,-0.55
2019-01-21T17:22:11.173Z,-0.52
2019-01-21T17:24:42.805Z,-0.43
2019-01-21T17:27:14.323Z,-0.56
2019-01-21T17:29:45.903Z,-0.66
2019-01-21T17:32:17.458Z,-0.54
2019-01-21T17:34:49.072Z,-0.66
2019-01-21T17:37:20.644Z,-0.69
2019-01-21T17:39:52.249Z,-0.68
2019-01-21T17:42:23.760Z,-0.37
2019-01-21T17:44:55.291Z,-0.62
2019-01-21T17:47:26.779Z,-0.66
2019-01-21T17:49:58.281Z,-0.72
2019-01-21T17:52:29.859Z,-0.73
2019-01-21T17:55:02.804Z,-0.70
2019-01-21T17:57:34.377Z,-0.71
2019-01-21T18:00:08.925Z,-0.67
2019-01-21T18:02:42.071Z,-0.81
2019-01-21T18:05:16.515Z,-0.79
2019-01-21T18:07:48.184Z,-0.65
2019-01-21T18:10:21.367Z,-0.69
2019-01-21T18:12:52.891Z,-0.62
2019-01-21T18:15:24.373Z,-0.64
2019-01-21T18:17:56.010Z,-0.69
2019-01-21T18:20:27.583Z,-0.67
2019-01-21T18:22:59.123Z,-0.68
2019-01-21T18:25:30.665Z,-0.66
2019-01-21T18:28:02.107Z,-0.62
2019-01-21T18:30:33.645Z,-0.59
2019-01-21T18:33:05.193Z,-0.68
2019-01-21T18:35:36.655Z,-0.64
2019-01-21T18:38:08.103Z,-0.63
2019-01-21T18:40:39.595Z,-0.52
2019-01-21T18:43:11.098Z,-0.75
2019-01-21T18:45:43.107Z,-0.72
2019-01-21T18:48:14.634Z,-0.72
2019-01-21T18:50:46.181Z,-0.73
2019-01-21T18:53:17.612Z,-0.83
2019-01-21T18:55:49.125Z,-0.83
2019-01-21T18:58:20.579Z,-0.94
2019-01-21T19:00:52.054Z,-0.79
2019-01-21T19:03:23.532Z,-0.74
2019-01-21T19:05:55.067Z,-0.67
2019-01-21T19:08:26.518Z,-0.91
2019-01-21T19:10:59.956Z,-0.82
2019-01-21T19:13:31.411Z,-0.77
2019-01-21T19:16:05.692Z,-0.73
2019-01-21T19:18:37.129Z,-0.89
2019-01-21T19:21:10.056Z,-0.91
2019-01-21T19:23:44.826Z,-0.80
2019-01-21T19:26:16.283Z,-0.94
2019-01-21T19:28:47.710Z,-0.92
2019-01-21T19:31:19.235Z,-0.79
2019-01-21T19:33:50.758Z,-0.72
2019-01-21T19:36:23.427Z,-0.87
2019-01-21T19:38:54.870Z,-0.85
2019-01-21T19:41:27.411Z,-0.67
2019-01-21T19:43:59.027Z,-0.61
2019-01-21T19:46:30.573Z,-0.64
2019-01-21T19:49:02.033Z,-0.78
2019-01-21T19:51:34.836Z,-0.77
2019-01-21T19:54:06.401Z,-0.87
2019-01-21T19:56:38.031Z,-0.83
2019-01-21T19:59:09.478Z,-0.67
2019-01-21T20:01:41.043Z,-0.88
2019-01-21T20:04:12.575Z,-0.88
2019-01-21T20:06:44.047Z,-0.89
2019-01-21T20:09:17.241Z,-0.96
2019-01-21T20:11:48.708Z,-0.91
2019-01-21T20:14:20.064Z,-0.83
2019-01-21T20:16:51.540Z,-0.71
2019-01-21T20:19:22.996Z,-0.70
2019-01-21T20:21:54.481Z,-0.82
2019-01-21T20:24:25.946Z,-0.80
2019-01-21T20:26:57.443Z,-0.80
2019-01-21T20:29:28.925Z,-0.85
2019-01-21T20:32:00.380Z,-0.89
2019-01-21T20:34:31.903Z,-0.78
2019-01-21T20:37:03.421Z,-0.75
2019-01-21T20:39:34.975Z,-0.91
2019-01-21T20:42:06.447Z,-1.01
2019-01-21T20:44:37.878Z,-0.98
2019-01-21T20:47:09.357Z,-0.96
2019-01-21T20:49:40.805Z,-0.84
2019-01-21T20:52:14.245Z,-0.94
2019-01-21T20:54:45.490Z,-0.94
2019-01-21T20:57:16.960Z,-0.84
2019-01-21T20:59:48.454Z,-0.91
2019-01-21T21:02:19.920Z,-1.01
2019-01-21T21:04:51.482Z,-0.67
2019-01-21T21:07:23.004Z,-0.39
2019-01-21T21:09:54.521Z,-0.74
2019-01-21T21:12:26.114Z,-0.78
2019-01-21T21:14:57.625Z,-0.94
2019-01-21T21:17:29.223Z,-0.80
2019-01-21T21:20:00.756Z,-0.65
2019-01-21T21:22:32.265Z,-0.66
2019-01-21T21:25:03.879Z,-0.87
2019-01-21T21:27:35.503Z,-0.99
2019-01-21T21:30:12.083Z,-0.98
2019-01-21T21:32:43.595Z,-1.09
2019-01-21T21:35:15.258Z,-1.01
2019-01-21T21:37:46.789Z,-1.09
2019-01-21T21:40:19.570Z,-0.97
2019-01-21T21:42:51.182Z,-0.97
2019-01-21T21:45:22.790Z,-1.05
2019-01-21T21:47:54.715Z,-0.94
2019-01-21T21:50:31.994Z,-0.87
2019-01-21T21:53:03.705Z,-1.03
2019-01-21T21:55:35.319Z,-0.89
2019-01-21T21:58:10.200Z,-0.82
2019-01-21T22:00:41.788Z,-1.04
2019-01-21T22:03:13.364Z,-1.19
2019-01-21T22:05:44.859Z,-1.10
2019-01-21T22:08:16.447Z,-1.19
2019-01-21T22:10:48.030Z,-1.00
2019-01-21T22:13:19.586Z,-1.07
2019-01-21T22:15:51.080Z,-1.09
2019-01-21T22:18:22.614Z,-1.08
2019-01-21T22:20:54.133Z,-1.36
2019-01-21T22:23:25.678Z,-1.27
2019-01-21T22:25:57.168Z,-1.30
2019-01-21T22:28:28.634Z,-1.33
2019-01-21T22:31:00.359Z,-1.46
2019-01-21T22:33:32.800Z,-1.52
2019-01-21T22:36:04.298Z,-1.47
2019-01-21T22:38:35.796Z,-1.24
2019-01-21T22:41:07.264Z,-1.86
2019-01-21T22:43:38.715Z,-1.41
2019-01-21T22:46:10.163Z,-1.31
2019-01-21T22:48:41.684Z,-1.38
2019-01-21T22:51:13.126Z,-1.27
2019-01-21T22:53:44.578Z,-1.30
2019-01-21T22:56:16.009Z,-1.53
2019-01-21T22:58:47.640Z,-1.28
2019-01-21T23:01:33.655Z,-1.40
2019-01-21T23:04:05.390Z,-1.31
2019-01-21T23:06:36.817Z,-1.59
2019-01-21T23:09:10.246Z,-1.66
2019-01-21T23:11:41.732Z,-1.53
2019-01-21T23:14:13.203Z,-1.44
2019-01-21T23:16:44.649Z,-1.81
2019-01-21T23:19:16.138Z,-1.68
2019-01-21T23:21:47.577Z,-1.66
2019-01-21T23:24:19.363Z,-1.67
2019-01-21T23:26:50.904Z,-1.64
2019-01-21T23:29:22.441Z,-1.48
2019-01-21T23:31:53.881Z,-1.44
2019-01-21T23:34:25.355Z,-1.47
2019-01-21T23:36:56.783Z,-1.63
2019-01-21T23:39:28.226Z,-1.56
2019-01-21T23:41:59.679Z,-1.85
2019-01-21T23:44:31.141Z,-1.88
2019-01-21T23:47:02.873Z,-1.76
2019-01-21T23:49:34.392Z,-1.66
2019-01-21T23:52:05.825Z,-1.78
2019-01-21T23:54:37.304Z,-1.70
2019-01-21T23:57:08.713Z,-1.68
2019-01-21T23:59:40.215Z,-1.63
